createdAt,value
2018-12-26T00:01:41.118Z,4.20
2018-12-26T00:04:09.445Z,4.07
2018-12-26T00:06:37.638Z,3.90
2018-12-26T00:09:06.284Z,4.00
2018-12-26T00:11:34.476Z,4.27
2018-12-26T00:14:03.946Z,3.50
2018-12-26T00:16:32.161Z,2.90
2018-12-26T00:19:00.333Z,2.53
2018-12-26T00:21:28.508Z,2.17
2018-12-26T00:23:56.786Z,2.20
2018-12-26T00:26:24.985Z,2.00
2018-12-26T00:28:53.193Z,1.83
2018-12-26T00:31:21.385Z,2.10
2018-12-26T00:33:49.596Z,2.50
2018-12-26T00:36:17.769Z,2.00
2018-12-26T00:38:45.980Z,2.00
2018-12-26T00:41:14.165Z,2.20
2018-12-26T00:43:42.582Z,2.23
2018-12-26T00:46:10.789Z,2.10
2018-12-26T00:48:39.013Z,2.20
2018-12-26T00:51:07.196Z,2.43
2018-12-26T00:53:35.316Z,1.93
2018-12-26T00:56:10.416Z,1.50
2018-12-26T00:58:33.531Z,2.00
2018-12-26T01:01:01.803Z,1.63
2018-12-26T01:03:29.978Z,1.63
2018-12-26T01:05:58.254Z,1.80
2018-12-26T01:08:26.372Z,1.80
2018-12-26T01:10:54.613Z,1.33
2018-12-26T01:13:22.828Z,1.20
2018-12-26T01:15:51.121Z,1.50
2018-12-26T01:18:19.398Z,1.50
2018-12-26T01:20:47.519Z,1.40
2018-12-26T01:23:15.700Z,1.07
2018-12-26T01:25:43.952Z,1.10
2018-12-26T01:28:12.064Z,1.23
2018-12-26T01:30:40.191Z,1.40
2018-12-26T01:33:08.361Z,0.90
2018-12-26T01:35:36.483Z,0.80
2018-12-26T01:38:04.693Z,0.87
2018-12-26T01:40:32.881Z,0.87
2018-12-26T01:43:01.093Z,0.67
2018-12-26T01:45:29.363Z,0.47
2018-12-26T01:47:57.492Z,0.60
2018-12-26T01:50:25.765Z,0.50
2018-12-26T01:52:53.892Z,0.83
2018-12-26T01:55:22.165Z,0.50
2018-12-26T01:57:50.364Z,0.63
2018-12-26T02:00:18.549Z,0.60
2018-12-26T02:02:46.716Z,0.70
2018-12-26T02:05:14.998Z,0.60
2018-12-26T02:07:43.110Z,0.70
2018-12-26T02:10:11.357Z,0.90
2018-12-26T02:12:39.558Z,0.60
2018-12-26T02:15:07.838Z,0.80
2018-12-26T02:17:36.040Z,0.90
2018-12-26T02:20:04.816Z,1.20
2018-12-26T02:22:33.028Z,1.00
2018-12-26T02:25:02.197Z,1.10
2018-12-26T02:27:30.333Z,1.00
2018-12-26T02:29:58.733Z,0.60
2018-12-26T02:32:27.026Z,0.50
2018-12-26T02:34:55.778Z,0.70
2018-12-26T02:37:24.364Z,0.60
2018-12-26T02:39:52.544Z,0.93
2018-12-26T02:42:20.757Z,0.60
2018-12-26T02:44:49.000Z,0.60
2018-12-26T02:47:17.219Z,0.50
2018-12-26T02:49:45.326Z,0.70
2018-12-26T02:52:13.614Z,0.40
2018-12-26T02:54:41.710Z,0.57
2018-12-26T02:57:09.938Z,0.70
2018-12-26T02:59:38.541Z,0.50
2018-12-26T03:02:06.774Z,0.57
2018-12-26T03:04:34.976Z,0.70
2018-12-26T03:07:03.433Z,0.67
2018-12-26T03:09:31.755Z,0.73
2018-12-26T03:12:00.048Z,0.50
2018-12-26T03:14:28.349Z,0.67
2018-12-26T03:16:56.605Z,0.50
2018-12-26T03:19:24.717Z,0.40
2018-12-26T03:21:52.988Z,0.57
2018-12-26T03:24:21.209Z,0.40
2018-12-26T03:26:55.946Z,0.50
2018-12-26T03:29:19.421Z,0.30
2018-12-26T03:31:47.777Z,0.50
2018-12-26T03:34:16.082Z,0.40
2018-12-26T03:36:44.486Z,0.60
2018-12-26T03:39:12.901Z,0.60
2018-12-26T03:41:41.925Z,0.60
2018-12-26T03:44:10.159Z,0.50
2018-12-26T03:46:38.458Z,0.50
2018-12-26T03:49:06.757Z,0.50
2018-12-26T03:51:35.085Z,0.63
2018-12-26T03:54:03.481Z,0.70
2018-12-26T03:56:32.221Z,0.50
2018-12-26T03:59:02.768Z,0.63
2018-12-26T04:01:30.881Z,0.50
2018-12-26T04:03:59.185Z,0.60
2018-12-26T04:06:27.296Z,0.53
2018-12-26T04:08:55.628Z,0.50
2018-12-26T04:11:23.804Z,0.70
2018-12-26T04:13:52.109Z,0.70
2018-12-26T04:16:20.372Z,0.60
2018-12-26T04:18:48.490Z,0.70
2018-12-26T04:21:16.733Z,0.60
2018-12-26T04:23:45.259Z,0.40
2018-12-26T04:26:13.506Z,0.70
2018-12-26T04:28:41.676Z,0.50
2018-12-26T04:31:09.948Z,0.70
2018-12-26T04:33:38.481Z,0.70
2018-12-26T04:36:06.708Z,0.70
2018-12-26T04:38:35.448Z,0.77
2018-12-26T04:41:03.807Z,0.77
2018-12-26T04:43:31.994Z,0.57
2018-12-26T04:46:00.325Z,0.80
2018-12-26T04:48:28.437Z,0.50
2018-12-26T04:50:56.669Z,0.47
2018-12-26T04:53:24.845Z,0.60
2018-12-26T04:55:53.017Z,0.50
2018-12-26T04:58:21.292Z,0.60
2018-12-26T05:00:49.481Z,0.50
2018-12-26T05:03:17.657Z,0.70
2018-12-26T05:05:45.926Z,0.60
2018-12-26T05:08:14.123Z,0.70
2018-12-26T05:10:42.299Z,0.60
2018-12-26T05:13:10.487Z,0.50
2018-12-26T05:15:38.670Z,0.67
2018-12-26T05:18:06.997Z,0.50
2018-12-26T05:20:35.113Z,0.90
2018-12-26T05:23:03.678Z,1.00
2018-12-26T05:25:32.901Z,0.27
2018-12-26T05:28:01.124Z,0.80
2018-12-26T05:30:29.305Z,0.83
2018-12-26T05:32:57.621Z,0.73
2018-12-26T05:35:25.918Z,0.50
2018-12-26T05:37:54.215Z,0.80
2018-12-26T05:40:22.448Z,1.75
2018-12-26T05:42:50.571Z,1.10
2018-12-26T05:45:18.877Z,0.90
2018-12-26T05:47:47.000Z,1.30
2018-12-26T05:50:15.234Z,1.30
2018-12-26T05:52:43.400Z,0.80
2018-12-26T05:55:11.713Z,1.10
2018-12-26T05:57:42.982Z,1.03
2018-12-26T06:00:10.188Z,1.07
2018-12-26T06:02:38.458Z,1.10
2018-12-26T06:05:06.573Z,0.80
2018-12-26T06:07:34.837Z,0.80
2018-12-26T06:10:03.051Z,1.03
2018-12-26T06:12:31.277Z,1.03
2018-12-26T06:14:59.481Z,3.60
2018-12-26T06:17:27.764Z,1.90
2018-12-26T06:19:55.945Z,1.60
2018-12-26T06:22:24.264Z,1.07
2018-12-26T06:24:52.385Z,0.83
2018-12-26T06:27:20.616Z,0.57
2018-12-26T06:29:49.001Z,0.87
2018-12-26T06:32:17.192Z,1.00
2018-12-26T06:34:45.397Z,0.77
2018-12-26T06:37:13.568Z,0.80
2018-12-26T06:39:42.753Z,1.10
2018-12-26T06:42:10.997Z,0.70
2018-12-26T06:44:39.145Z,0.90
2018-12-26T06:47:07.389Z,0.80
2018-12-26T06:49:35.560Z,0.80
2018-12-26T06:52:03.845Z,0.73
2018-12-26T06:54:32.325Z,0.50
2018-12-26T06:57:00.796Z,1.00
2018-12-26T06:59:28.944Z,1.30
2018-12-26T07:01:57.209Z,0.97
2018-12-26T07:04:25.331Z,0.87
2018-12-26T07:06:53.560Z,1.00
2018-12-26T07:09:21.760Z,1.10
2018-12-26T07:11:49.953Z,1.90
2018-12-26T07:14:18.152Z,1.83
2018-12-26T07:16:46.451Z,2.80
2018-12-26T07:19:14.664Z,1.80
2018-12-26T07:21:42.837Z,1.40
2018-12-26T07:24:11.288Z,1.37
2018-12-26T07:26:39.492Z,1.00
2018-12-26T07:29:09.489Z,1.00
2018-12-26T07:31:37.758Z,0.83
2018-12-26T07:34:05.881Z,1.00
2018-12-26T07:36:34.219Z,0.85
2018-12-26T07:39:03.396Z,1.20
2018-12-26T07:41:31.725Z,1.30
2018-12-26T07:44:00.028Z,1.30
2018-12-26T07:46:28.320Z,1.10
2018-12-26T07:48:56.545Z,1.03
2018-12-26T07:51:24.720Z,1.37
2018-12-26T07:53:52.968Z,1.10
2018-12-26T07:56:21.084Z,1.50
2018-12-26T07:58:49.960Z,1.67
2018-12-26T08:01:18.073Z,1.50
2018-12-26T08:03:46.309Z,1.10
2018-12-26T08:06:14.619Z,1.60
2018-12-26T08:08:43.249Z,1.60
2018-12-26T08:11:11.506Z,2.03
2018-12-26T08:13:39.616Z,1.80
2018-12-26T08:16:07.876Z,2.73
2018-12-26T08:18:36.087Z,2.00
2018-12-26T08:21:04.412Z,1.80
2018-12-26T08:23:32.708Z,4.07
2018-12-26T08:26:00.988Z,1.80
2018-12-26T08:28:29.117Z,1.70
2018-12-26T08:30:57.816Z,1.30
2018-12-26T08:33:26.121Z,1.60
2018-12-26T08:35:54.307Z,1.20
2018-12-26T08:38:22.982Z,1.17
2018-12-26T08:40:51.106Z,1.20
2018-12-26T08:43:19.369Z,2.03
2018-12-26T08:45:47.633Z,1.20
2018-12-26T08:48:16.212Z,1.47
2018-12-26T08:50:44.389Z,1.60
2018-12-26T08:53:12.637Z,1.40
2018-12-26T08:55:40.750Z,1.30
2018-12-26T08:58:09.010Z,1.47
2018-12-26T09:00:37.266Z,1.30
2018-12-26T09:03:05.481Z,1.10
2018-12-26T09:05:33.682Z,1.20
2018-12-26T09:08:01.859Z,1.23
2018-12-26T09:10:30.041Z,2.07
2018-12-26T09:12:58.311Z,2.20
2018-12-26T09:15:26.425Z,1.93
2018-12-26T09:17:54.701Z,1.70
2018-12-26T09:20:22.823Z,1.97
2018-12-26T09:22:51.073Z,2.57
2018-12-26T09:25:19.292Z,2.20
2018-12-26T09:27:47.977Z,1.30
2018-12-26T09:30:16.193Z,1.33
2018-12-26T09:32:44.523Z,1.20
2018-12-26T09:35:12.641Z,1.10
2018-12-26T09:37:40.884Z,1.30
2018-12-26T09:40:09.129Z,1.13
2018-12-26T09:42:37.508Z,1.93
2018-12-26T09:45:06.190Z,1.10
2018-12-26T09:47:34.800Z,1.30
2018-12-26T09:50:03.166Z,1.20
2018-12-26T09:52:31.365Z,1.60
2018-12-26T09:54:59.668Z,1.20
2018-12-26T09:57:27.996Z,1.03
2018-12-26T09:59:56.288Z,0.83
2018-12-26T10:02:24.483Z,1.50
2018-12-26T10:04:52.923Z,2.80
2018-12-26T10:07:21.560Z,1.50
2018-12-26T10:09:49.845Z,1.53
2018-12-26T10:12:18.232Z,3.73
2018-12-26T10:14:46.423Z,3.57
2018-12-26T10:17:17.189Z,2.67
2018-12-26T10:19:45.501Z,2.00
2018-12-26T10:22:13.617Z,1.40
2018-12-26T10:24:42.028Z,1.40
2018-12-26T10:27:10.792Z,3.00
2018-12-26T10:29:38.909Z,1.97
2018-12-26T10:32:07.142Z,1.83
2018-12-26T10:34:35.313Z,1.90
2018-12-26T10:37:03.581Z,1.90
2018-12-26T10:39:31.800Z,3.10
2018-12-26T10:42:00.438Z,2.27
2018-12-26T10:44:28.732Z,2.00
2018-12-26T10:46:57.037Z,1.93
2018-12-26T10:49:25.410Z,1.23
2018-12-26T10:51:53.744Z,1.20
2018-12-26T10:54:22.722Z,1.47
2018-12-26T10:56:51.829Z,1.50
2018-12-26T10:59:19.945Z,1.30
2018-12-26T11:01:48.192Z,1.40
2018-12-26T11:04:18.604Z,1.70
2018-12-26T11:06:46.950Z,1.93
2018-12-26T11:09:17.009Z,1.87
2018-12-26T11:11:45.608Z,2.60
2018-12-26T11:14:13.809Z,1.50
2018-12-26T11:16:42.137Z,2.20
2018-12-26T11:19:10.369Z,2.27
2018-12-26T11:21:38.624Z,1.60
2018-12-26T11:24:06.737Z,2.33
2018-12-26T11:26:34.982Z,3.10
2018-12-26T11:29:03.213Z,2.23
2018-12-26T11:31:31.545Z,2.00
2018-12-26T11:33:59.667Z,1.67
2018-12-26T11:36:27.946Z,4.07
2018-12-26T11:38:58.306Z,4.57
2018-12-26T11:41:28.182Z,1.37
2018-12-26T11:43:57.551Z,1.80
2018-12-26T11:46:29.574Z,1.43
2018-12-26T11:48:59.160Z,1.87
2018-12-26T11:51:27.294Z,2.13
2018-12-26T11:53:55.570Z,2.77
2018-12-26T11:56:23.694Z,2.40
2018-12-26T11:58:52.033Z,2.20
2018-12-26T12:01:20.841Z,1.43
2018-12-26T12:03:49.041Z,2.20
2018-12-26T12:06:17.226Z,1.67
2018-12-26T12:08:45.564Z,2.10
2018-12-26T12:11:14.541Z,3.00
2018-12-26T12:13:42.934Z,2.57
2018-12-26T12:16:11.236Z,3.17
2018-12-26T12:18:39.576Z,2.00
2018-12-26T12:21:07.940Z,2.20
2018-12-26T12:23:36.352Z,6.40
2018-12-26T12:26:04.619Z,3.97
2018-12-26T12:28:32.754Z,3.87
2018-12-26T12:31:01.088Z,4.03
2018-12-26T12:33:29.291Z,2.07
2018-12-26T12:35:57.673Z,1.67
2018-12-26T12:38:25.976Z,2.53
2018-12-26T12:40:54.303Z,1.10
2018-12-26T12:43:23.052Z,1.30
2018-12-26T12:45:51.400Z,1.23
2018-12-26T12:48:19.595Z,1.70
2018-12-26T12:50:47.793Z,1.47
2018-12-26T12:53:16.102Z,2.10
2018-12-26T12:55:44.475Z,2.47
2018-12-26T12:58:12.713Z,2.40
2018-12-26T13:00:41.104Z,2.30
2018-12-26T13:03:09.277Z,2.43
2018-12-26T13:05:38.048Z,3.57
2018-12-26T13:08:07.579Z,3.60
2018-12-26T13:10:35.741Z,2.53
2018-12-26T13:13:03.989Z,2.07
2018-12-26T13:15:32.405Z,2.50
2018-12-26T13:18:01.726Z,2.40
2018-12-26T13:20:29.947Z,1.60
2018-12-26T13:22:58.340Z,2.63
2018-12-26T13:25:26.452Z,31.87
2018-12-26T13:27:54.592Z,7.87
2018-12-26T13:30:22.989Z,14.90
2018-12-26T13:32:51.187Z,6.67
2018-12-26T13:35:19.408Z,3.40
2018-12-26T13:37:47.600Z,12.70
2018-12-26T13:40:15.780Z,6.80
2018-12-26T13:42:44.196Z,14.87
2018-12-26T13:45:12.333Z,10.93
2018-12-26T13:47:40.632Z,10.37
2018-12-26T13:50:09.100Z,8.03
2018-12-26T13:52:37.424Z,6.63
2018-12-26T13:55:05.846Z,6.07
2018-12-26T13:57:33.965Z,6.87
2018-12-26T14:00:02.863Z,6.20
2018-12-26T14:02:31.580Z,4.80
2018-12-26T14:04:59.856Z,4.90
2018-12-26T14:07:28.062Z,7.47
2018-12-26T14:09:56.738Z,5.53
2018-12-26T14:12:28.761Z,7.53
2018-12-26T14:15:00.307Z,6.90
2018-12-26T14:17:28.723Z,4.87
2018-12-26T14:19:56.922Z,6.47
2018-12-26T14:22:25.232Z,12.50
2018-12-26T14:24:53.350Z,13.80
2018-12-26T14:27:29.083Z,19.37
2018-12-26T14:29:52.113Z,33.60
2018-12-26T14:32:20.323Z,40.57
2018-12-26T14:34:48.630Z,55.33
2018-12-26T14:37:16.809Z,22.60
2018-12-26T14:39:44.995Z,30.77
2018-12-26T14:42:13.284Z,57.67
2018-12-26T14:44:41.404Z,87.77
2018-12-26T14:47:09.701Z,13.70
2018-12-26T14:49:37.952Z,19.73
2018-12-26T14:52:06.174Z,17.63
2018-12-26T14:54:34.367Z,12.47
2018-12-26T14:57:02.869Z,12.10
2018-12-26T14:59:31.082Z,15.20
2018-12-26T15:01:59.416Z,24.37
2018-12-26T15:04:27.981Z,32.77
2018-12-26T15:06:56.237Z,14.93
2018-12-26T15:09:25.361Z,6.77
2018-12-26T15:11:53.644Z,6.37
2018-12-26T15:14:21.776Z,6.17
2018-12-26T15:16:50.012Z,5.77
2018-12-26T15:19:18.790Z,5.63
2018-12-26T15:21:47.152Z,7.70
2018-12-26T15:24:15.529Z,17.70
2018-12-26T15:26:43.696Z,7.93
2018-12-26T15:29:11.980Z,7.20
2018-12-26T15:31:40.380Z,6.97
2018-12-26T15:34:08.786Z,9.40
2018-12-26T15:36:37.757Z,8.07
2018-12-26T15:39:08.008Z,7.70
2018-12-26T15:41:36.390Z,8.27
2018-12-26T15:44:04.753Z,8.03
2018-12-26T15:46:33.184Z,9.00
2018-12-26T15:49:01.642Z,18.83
2018-12-26T15:51:29.916Z,30.50
2018-12-26T15:53:58.049Z,30.93
2018-12-26T15:56:26.434Z,28.80
2018-12-26T15:58:54.583Z,31.27
2018-12-26T16:01:22.935Z,24.07
2018-12-26T16:03:51.136Z,22.73
2018-12-26T16:06:19.455Z,21.27
2018-12-26T16:08:47.724Z,21.33
2018-12-26T16:11:15.845Z,20.43
2018-12-26T16:13:44.179Z,24.13
2018-12-26T16:16:12.304Z,24.93
2018-12-26T16:18:40.539Z,24.93
2018-12-26T16:21:08.712Z,23.97
2018-12-26T16:23:36.885Z,26.83
2018-12-26T16:26:05.142Z,27.93
2018-12-26T16:28:33.497Z,24.43
2018-12-26T16:31:02.262Z,34.47
2018-12-26T16:33:30.695Z,30.20
2018-12-26T16:35:58.966Z,33.07
2018-12-26T16:38:27.176Z,30.60
2018-12-26T16:40:55.614Z,30.33
2018-12-26T16:43:23.920Z,33.33
2018-12-26T16:45:52.652Z,27.50
2018-12-26T16:48:20.772Z,24.30
2018-12-26T16:50:49.544Z,23.07
2018-12-26T16:53:17.733Z,18.87
2018-12-26T16:55:45.919Z,18.03
2018-12-26T16:58:14.117Z,17.47
2018-12-26T17:00:42.365Z,18.13
2018-12-26T17:03:10.677Z,17.30
2018-12-26T17:05:38.904Z,19.20
2018-12-26T17:08:07.145Z,23.50
2018-12-26T17:10:35.322Z,28.20
2018-12-26T17:13:03.549Z,28.23
2018-12-26T17:15:31.732Z,26.87
2018-12-26T17:17:59.929Z,28.13
2018-12-26T17:20:28.176Z,37.40
2018-12-26T17:22:56.296Z,36.43
2018-12-26T17:25:24.690Z,33.43
2018-12-26T17:27:52.817Z,31.67
2018-12-26T17:30:21.221Z,27.43
2018-12-26T17:32:49.324Z,25.50
2018-12-26T17:35:17.977Z,29.00
2018-12-26T17:37:46.312Z,25.50
2018-12-26T17:40:14.652Z,25.87
2018-12-26T17:42:42.967Z,27.07
2018-12-26T17:45:14.497Z,30.00
2018-12-26T17:47:42.693Z,30.17
2018-12-26T17:50:28.941Z,26.50
2018-12-26T17:52:57.101Z,25.87
2018-12-26T17:55:43.392Z,27.20
2018-12-26T17:58:11.603Z,33.07
2018-12-26T18:00:46.308Z,32.80
2018-12-26T18:03:14.645Z,30.27
2018-12-26T18:05:42.785Z,32.25
2018-12-26T18:08:11.058Z,28.87
2018-12-26T18:10:39.720Z,28.40
2018-12-26T18:13:08.027Z,28.63
2018-12-26T18:15:36.299Z,30.67
2018-12-26T18:18:04.567Z,29.53
2018-12-26T18:20:32.913Z,28.10
2018-12-26T18:23:01.131Z,30.37
2018-12-26T18:25:29.480Z,29.43
2018-12-26T18:27:58.092Z,29.00
2018-12-26T18:30:26.703Z,28.03
2018-12-26T18:32:54.873Z,28.07
2018-12-26T18:35:23.226Z,25.17
2018-12-26T18:37:51.833Z,24.00
2018-12-26T18:40:20.005Z,24.37
2018-12-26T18:42:49.492Z,24.50
2018-12-26T18:45:17.713Z,23.87
2018-12-26T18:47:45.933Z,24.43
2018-12-26T18:50:14.257Z,22.43
2018-12-26T18:52:42.568Z,26.10
2018-12-26T18:55:10.844Z,28.93
2018-12-26T18:57:39.039Z,30.60
2018-12-26T19:00:09.411Z,26.23
2018-12-26T19:02:37.684Z,31.27
2018-12-26T19:05:06.334Z,34.20
2018-12-26T19:07:34.621Z,35.40
2018-12-26T19:10:02.869Z,35.47
2018-12-26T19:12:31.109Z,36.00
2018-12-26T19:14:59.248Z,36.57
2018-12-26T19:17:27.544Z,35.37
2018-12-26T19:19:55.679Z,36.83
2018-12-26T19:22:23.913Z,33.30
2018-12-26T19:24:52.133Z,31.57
2018-12-26T19:27:20.441Z,29.53
2018-12-26T19:29:48.752Z,25.97
2018-12-26T19:32:17.650Z,26.77
2018-12-26T19:34:45.872Z,25.37
2018-12-26T19:37:14.723Z,26.30
2018-12-26T19:39:45.016Z,27.40
2018-12-26T19:42:13.292Z,26.37
2018-12-26T19:44:41.507Z,26.60
2018-12-26T19:47:09.681Z,23.97
2018-12-26T19:49:37.889Z,23.60
2018-12-26T19:52:06.116Z,21.30
2018-12-26T19:54:34.334Z,22.50
2018-12-26T19:57:02.725Z,23.87
2018-12-26T19:59:30.917Z,23.10
2018-12-26T20:01:59.181Z,24.13
2018-12-26T20:04:27.310Z,25.10
2018-12-26T20:06:55.568Z,25.10
2018-12-26T20:09:23.878Z,26.70
2018-12-26T20:11:52.088Z,26.80
2018-12-26T20:14:20.313Z,27.80
2018-12-26T20:16:48.618Z,25.53
2018-12-26T20:19:18.041Z,27.80
2018-12-26T20:21:46.411Z,26.93
2018-12-26T20:24:15.715Z,26.33
2018-12-26T20:26:43.989Z,25.23
2018-12-26T20:29:12.252Z,24.17
2018-12-26T20:31:40.557Z,24.47
2018-12-26T20:34:08.745Z,26.10
2018-12-26T20:36:36.985Z,23.97
2018-12-26T20:39:06.029Z,26.07
2018-12-26T20:41:34.428Z,23.70
2018-12-26T20:44:02.620Z,24.47
2018-12-26T20:46:30.853Z,21.03
2018-12-26T20:48:59.101Z,21.90
2018-12-26T20:51:27.279Z,25.93
2018-12-26T20:53:55.481Z,31.90
2018-12-26T20:56:23.707Z,40.20
2018-12-26T20:58:51.897Z,34.20
2018-12-26T21:01:20.303Z,30.60
2018-12-26T21:03:49.616Z,34.50
2018-12-26T21:06:17.956Z,33.63
2018-12-26T21:08:46.281Z,34.43
2018-12-26T21:11:14.744Z,37.13
2018-12-26T21:13:43.899Z,36.13
2018-12-26T21:16:12.324Z,40.57
2018-12-26T21:18:40.802Z,33.10
2018-12-26T21:21:09.353Z,37.08
2018-12-26T21:23:37.533Z,29.37
2018-12-26T21:26:05.819Z,27.90
2018-12-26T21:28:34.023Z,24.27
2018-12-26T21:31:02.389Z,24.87
2018-12-26T21:33:30.557Z,24.37
2018-12-26T21:35:58.880Z,24.63
2018-12-26T21:38:27.107Z,22.67
2018-12-26T21:40:55.289Z,23.30
2018-12-26T21:43:23.469Z,23.63
2018-12-26T21:45:51.737Z,21.97
2018-12-26T21:48:19.952Z,19.30
2018-12-26T21:50:48.125Z,19.37
2018-12-26T21:53:16.385Z,21.73
2018-12-26T21:55:44.577Z,19.50
2018-12-26T21:58:12.769Z,21.23
2018-12-26T22:00:40.981Z,19.97
2018-12-26T22:03:09.324Z,20.10
2018-12-26T22:05:37.628Z,17.80
2018-12-26T22:08:06.002Z,17.70
2018-12-26T22:10:34.133Z,18.30
2018-12-26T22:13:02.411Z,19.53
2018-12-26T22:15:30.524Z,24.17
2018-12-26T22:17:58.792Z,24.57
2018-12-26T22:20:27.372Z,25.87
2018-12-26T22:22:55.713Z,21.00
2018-12-26T22:25:24.079Z,18.17
2018-12-26T22:27:52.194Z,18.93
2018-12-26T22:30:20.490Z,16.53
2018-12-26T22:32:48.604Z,15.97
2018-12-26T22:35:16.881Z,16.37
2018-12-26T22:37:45.531Z,17.03
2018-12-26T22:40:13.760Z,16.07
2018-12-26T22:42:42.121Z,15.03
2018-12-26T22:45:10.673Z,14.37
2018-12-26T22:47:39.147Z,13.77
2018-12-26T22:50:07.473Z,15.07
2018-12-26T22:52:35.821Z,15.83
2018-12-26T22:55:04.277Z,16.73
2018-12-26T22:57:33.754Z,15.97
2018-12-26T23:00:05.068Z,18.60
2018-12-26T23:02:38.795Z,17.67
2018-12-26T23:05:04.023Z,16.80
2018-12-26T23:07:32.284Z,14.83
2018-12-26T23:10:00.565Z,13.93
2018-12-26T23:12:28.839Z,14.60
2018-12-26T23:14:57.322Z,14.70
2018-12-26T23:17:25.677Z,15.57
2018-12-26T23:19:53.781Z,15.40
2018-12-26T23:22:22.037Z,15.83
2018-12-26T23:24:50.249Z,14.90
2018-12-26T23:27:18.596Z,15.00
2018-12-26T23:29:46.782Z,14.23
2018-12-26T23:32:15.024Z,12.80
2018-12-26T23:34:43.145Z,11.77
2018-12-26T23:37:11.655Z,10.20
2018-12-26T23:39:41.750Z,11.67
2018-12-26T23:42:10.139Z,12.07
2018-12-26T23:44:38.265Z,10.83
2018-12-26T23:47:06.509Z,9.73
2018-12-26T23:49:34.716Z,9.03
2018-12-26T23:52:02.888Z,8.80
2018-12-26T23:54:31.189Z,9.13
2018-12-26T23:56:59.382Z,8.90
2018-12-26T23:59:27.676Z,7.63
